Airfield :
LOGIN :

Register | Disclaimer

   EN    FR    IT 

 










Legend :    VFR   Marginal VFR   IFR   Intensive IFR   Very Intensive IFR
Visi :
Ceiling :
>= 8 km
>= 3000ft
5 to 8 km
1000 to 3000 ft
1500m to 5 km
500 to 1000 ft
800 to 1500m
200 to 500 ft
< 800m
< 200 ft
Symbols :   Thunderstorms  Fog  Heavy snow  Heavy precipitations  Wind > 20 kt
SIGMETs :     Misc.  Thunderstorms  Icing  Turbulence  Mountain Waves  Volcanic Ashes






- Airport Elevation : 42 ft
- IATA code : KGD


UMKK - Khrabrava - Kaliningrad

CURRENT METAR :
  • 222000Z 24011G18MPS 9999 -SHRA BKN023CB 07/04 Q1000 R24/290195 NOSIG RMK QFE749/0999

EXPIRED METARs :
  • 221930Z 24012G17MPS 9999 BKN024CB 08/04 Q1001 R24/290195 NOSIG RMK QFE749/0999
  • 221900Z 24011G17MPS 9999 BKN023CB 07/04 Q1001 R24/290195 NOSIG RMK QFE749/0999
  • 221830Z 23010MPS 9999 BKN025CB 07/04 Q1000 R24/290195 NOSIG RMK QFE749/0999
  • 221800Z 23010G15MPS 9999 -SHRA BKN027CB 07/04 Q1001 R24/290195 NOSIG RMK QFE749/0999
  • 221730Z 23011MPS 9999 -SHRA BKN028CB 07/03 Q1001 R24/19//95 NOSIG RMK QFE749/0999

TAF TAF UMKK
Valid from the 22 at 21:00 until the 23 at 21:00 UTC


221956Z 2221/2321 26010G17MPS 9999 SCT011 BKN020CB
TEMPO 2221/2312 27014G25MPS 3100 -SHRAGS BKN011 BKN013CB
BECMG 2313/2315 25008G14MPS
TEMPO 2315/2321 27005G10MPS 3100 -SHRA BKN012CB



MET'MAP, your aeronautical weather chart ! - Copyright ORBIFLY December 2007 - Disclaimer

ORBIFLY MET'MAP TEAM :

Programming & Development : Alexandra Zaïnal
Concept & original design : Baudouin d'Aumeries
Assistance for programming : Marc-Olivier Méhu
Technical & hardware support : Manuel Goepfert

Contact : metmap@orbifly.com




SOURCES & CREDITS :

   NOAA